• Join FlightAware (Why Join?)
  • Login
  • US Flag 
11:54PM EDT


 

Airport Tracker/Info


-or-


 

Live Flight TrackerFlight Track Log ✈ FLG3432 ✈ 27-Apr-2013 ✈ KJFK - KDCA

Flight Track Log - Related Links

Times and Time Zones

All times are in EDT time to prevent confusion due to time zone crossing. See the FLG3432 flight status page for this flight to view local times or setup timezone preferences in your user account.

Time Position Orientation Groundspeed Altitude Reporting Facility
EDT Latitude Longitude Course Direction KTS MPH feet Rate Location/Type
08:54AM 40.6500 -73.8500 229° Southwest 179 206 1,900  Level New York TRACON
08:55AM 40.6000 -73.9000 217° Southwest 238 274 4,300 2,640 Climbing New York TRACON
08:56AM 40.4398 -74.0748 233° Southwest  Level FlightAware Approximate
08:56AM 40.5333 -73.9500 210° Southwest 278 320 7,200  Level New York TRACON
08:57AM 40.3743 -74.1870 233° Southwest  Level FlightAware Approximate
08:57AM 40.4667 -74.0167 217° Southwest 296 341 10,200  Level New York TRACON
08:58AM 40.3079 -74.2981 232° Southwest  Level FlightAware Approximate
08:58AM 40.3833 -74.0833 211° Southwest 340 391 11,100  Level New York TRACON
08:59AM 40.2451 -74.4073 229° Southwest  Level FlightAware Approximate
08:59AM 40.3333 -74.1833 237° Southwest 349 402 13,800  Level New York TRACON
09:00AM 40.2900 -74.3000 244° Southwest 358 412 16,300 1,560 Climbing New York Center
09:01AM 40.2453 -74.4011 240° Southwest 370 426 17,000 720 Climbing New York Center
09:02AM 40.1994 -74.5319 245° Southwest 365 420 17,800 1,500 Climbing New York Center
09:03AM 40.1889 -74.6672 264° West 368 423 20,100 2,100 Climbing New York Center
09:04AM 40.1783 -74.7917 264° West 373 429 22,000 900 Climbing New York Center
09:05AM 40.1717 -74.9269 266° West 373 429 22,000  Level New York Center
09:06AM 40.1583 -75.0675 263° West 378 435 22,000  Level New York Center
09:07AM 40.1489 -75.2053 265° West 384 442 22,000  Level New York Center
09:08AM 40.1375 -75.3431 264° West 384 442 22,000  Level New York Center
09:09AM 40.0744 -75.4611 235° Southwest 384 442 22,000  Level New York Center
09:10AM 39.9972 -75.5642 226° Southwest 391 450 22,000  Level New York Center
09:11AM 39.9219 -75.6756 229° Southwest 402 463 22,000  Level New York Center
09:12AM 39.8608 -75.7903 235° Southwest 408 470 22,000 -540 Level New York Center
09:13AM 39.7994 -75.9075 236° Southwest 398 458 21,000 -1,440 Descending New York Center
09:14AM 39.7400 -76.0247 237° Southwest 392 451 19,100 -1,800 Descending New York Center
09:15AM 39.6700 -76.1461 233° Southwest 384 442 17,400 -1,980 Descending New York Center
09:17AM 39.5500 -76.3333 230° Southwest 372 428 13,700 -1,980 Descending Potomac TRACON
09:18AM 39.4667 -76.4000 212° Southwest 365 420 12,100 -1,080 Descending Potomac TRACON
09:19AM 39.3833 -76.4833 218° Southwest 358 412 11,600 -900 Descending Potomac TRACON
09:20AM 39.3000 -76.5500 212° Southwest 356 410 10,300 -840 Descending Potomac TRACON
09:21AM 39.2333 -76.6167 218° Southwest 345 397 10,000 -180 Descending Potomac TRACON
09:22AM 39.1667 -76.6833 218° Southwest 290 334 10,000  Level Potomac TRACON
09:23AM 39.1000 -76.7500 218° Southwest 293 337 10,000  Level Potomac TRACON
09:24AM 39.0333 -76.8167 218° Southwest 294 338 10,000 -840 Level Potomac TRACON
09:24AM 38.9833 -76.8833 226° Southwest 284 327 8,400 -1,620 Descending Potomac TRACON
09:25AM 38.9167 -76.9333 210° Southwest 277 319 6,900 -1,200 Descending Potomac TRACON
09:26AM 38.8667 -76.9500 195° South 216 249 6,000 -1,440 Descending Potomac TRACON
09:27AM 38.8000 -76.9500 180° South 196 226 4,100 -1,080 Descending Potomac TRACON
09:28AM 38.7667 -76.9500 180° South 173 199 4,000 -60 Descending Potomac TRACON
09:29AM 38.7167 -76.9333 165° South 179 206 4,000  Level Potomac TRACON
09:30AM 38.6667 -76.9333 180° South 175 201 4,000 -300 Level Potomac TRACON
09:31AM 38.6500 -76.9667 237° Southwest 174 200 3,500 -540 Descending Potomac TRACON
09:32AM 38.6500 -77.0167 270° West 191 220 3,000 -540 Descending Potomac TRACON